Time;durP1;ratioP1;P1;durP2;ratioP2;P2;SDS_P1;SDS_P2;PMS_P1;PMS_P2;Temp;Humidity;BMP_temperature;BMP_pressure;BME280_temperature;BME280_humidity;BME280_pressure;Samples;Min_cycle;Max_cycle;Signal;HPM_P1;HPM_P2
2022/12/19 00:09:15;;;;;;;7.22;5.53;;;;;;;15.48;55.71;101676.97;6305187;22;19999;-83
2022/12/19 00:11:43;;;;;;;9.10;5.60;;;;;;;15.49;55.66;101685.63;6309957;22;19998;-83
2022/12/19 00:14:10;;;;;;;7.50;5.55;;;;;;;15.48;55.81;101669.19;6336811;22;19991;-83
2022/12/19 00:16:39;;;;;;;9.10;5.47;;;;;;;15.49;55.67;101664.88;6309378;22;19992;-83
2022/12/19 00:19:04;;;;;;;7.78;5.40;;;;;;;15.48;55.52;101643.25;6309179;22;20003;-83
2022/12/19 00:21:32;;;;;;;7.32;5.50;;;;;;;15.47;55.76;101646.69;6309196;22;20010;-84
2022/12/19 00:23:58;;;;;;;7.43;5.10;;;;;;;15.48;55.67;101655.34;6309994;22;20015;-83
2022/12/19 00:26:29;;;;;;;9.00;5.22;;;;;;;15.47;55.77;101662.25;6309165;22;20002;-83
2022/12/19 00:29:00;;;;;;;7.05;4.97;;;;;;;15.47;55.68;101644.09;6309248;22;20039;-83
2022/12/19 00:31:28;;;;;;;5.97;4.78;;;;;;;15.47;55.68;101641.50;6309290;22;20009;-83
2022/12/19 00:33:54;;;;;;;6.32;4.72;;;;;;;15.48;55.56;101642.38;6308986;22;20011;-83
2022/12/19 00:36:22;;;;;;;7.60;4.95;;;;;;;15.48;55.75;101626.81;6307513;22;20019;-81
2022/12/19 00:38:50;;;;;;;6.28;4.82;;;;;;;15.48;55.51;101627.69;6308248;22;20045;-83
2022/12/19 00:41:25;;;;;;;6.55;4.88;;;;;;;15.48;55.75;101627.69;6335291;22;20003;-83
2022/12/19 00:44:00;;;;;;;8.60;5.05;;;;;;;15.47;55.65;101625.09;6309005;22;20011;-83
2022/12/19 00:46:27;;;;;;;6.18;4.68;;;;;;;15.48;55.67;101634.59;6307004;22;19988;-84
2022/12/19 00:48:52;;;;;;;5.38;4.55;;;;;;;15.48;55.47;101629.41;6308014;22;19998;-84
2022/12/19 00:51:21;;;;;;;5.63;4.80;;;;;;;15.47;55.75;101619.91;6308375;22;20010;-83
2022/12/19 00:53:52;;;;;;;6.20;5.10;;;;;;;15.47;55.71;101606.94;6308419;22;19996;-83
2022/12/19 00:56:23;;;;;;;5.88;4.55;;;;;;;15.46;55.60;101606.06;6307818;22;20003;-83
2022/12/19 00:58:49;;;;;;;5.93;4.55;;;;;;;15.47;55.53;101606.94;6308626;22;19991;-83
2022/12/19 01:01:26;;;;;;;6.15;4.70;;;;;;;15.46;55.61;101610.34;6308387;22;19983;-83
2022/12/19 01:03:53;;;;;;;5.75;4.65;;;;;;;15.47;55.68;101599.16;6308640;22;20054;-83
2022/12/19 01:06:19;;;;;;;6.75;4.82;;;;;;;15.45;55.62;101599.13;6303457;22;19980;-83
2022/12/19 01:08:48;;;;;;;5.93;4.47;;;;;;;15.46;55.59;101594.78;6271916;22;20027;-84
2022/12/19 01:11:13;;;;;;;6.10;4.55;;;;;;;15.44;55.51;101581.84;6272938;22;20015;-83
2022/12/19 01:13:39;;;;;;;5.88;4.70;;;;;;;15.43;55.53;101586.13;6272307;23;20000;-82
2022/12/19 01:16:08;;;;;;;7.32;4.57;;;;;;;15.45;55.58;101569.72;6272314;23;20008;-82
2022/12/19 01:18:34;;;;;;;6.10;4.45;;;;;;;15.45;55.53;101573.19;6272145;23;20004;-80
2022/12/19 01:21:02;;;;;;;5.78;4.45;;;;;;;15.43;55.45;101573.16;6297352;22;19989;-83
2022/12/19 01:23:28;;;;;;;5.43;4.40;;;;;;;15.43;55.51;101562.78;6271581;22;20019;-83
2022/12/19 01:25:56;;;;;;;5.85;4.03;;;;;;;15.43;55.77;101562.78;6291681;22;19999;-83
2022/12/19 01:28:23;;;;;;;5.10;4.38;;;;;;;15.42;55.56;101553.28;6267192;23;20000;-83
2022/12/19 01:30:52;;;;;;;4.50;3.92;;;;;;;15.43;55.57;101552.41;6299967;22;20444;-83
2022/12/19 01:35:53;;;;;;;5.13;4.07;;;;;;;15.45;55.56;101543.78;6284484;22;20019;-84
2022/12/19 01:38:20;;;;;;;5.80;4.38;;;;;;;15.43;55.60;101539.44;6310826;22;20045;-83
2022/12/19 01:40:54;;;;;;;5.93;4.28;;;;;;;15.41;55.59;101527.31;6310993;22;19987;-84
2022/12/19 01:43:21;;;;;;;5.40;4.38;;;;;;;15.42;55.58;101523.88;6311338;22;20074;-84
2022/12/19 01:46:01;;;;;;;5.45;4.20;;;;;;;15.42;55.38;101527.34;6311143;22;20015;-84
2022/12/19 01:48:37;;;;;;;5.28;4.50;;;;;;;15.42;55.72;101516.09;6311029;22;20007;-83
2022/12/19 01:51:20;;;;;;;5.32;3.88;;;;;;;15.42;55.44;101518.69;6311002;22;20046;-83
2022/12/19 01:53:54;;;;;;;4.93;4.30;;;;;;;15.42;55.61;101522.16;6337449;22;20043;-83
2022/12/19 02:06:44;;;;;;;4.65;3.85;;;;;;;15.42;55.41;101504.00;6262097;22;20015;-82
2022/12/19 02:09:11;;;;;;;6.20;4.25;;;;;;;15.42;55.47;101500.53;6309970;22;20008;-83
2022/12/19 02:11:37;;;;;;;4.78;3.83;;;;;;;15.41;55.59;101493.59;6310266;22;20021;-82
2022/12/19 02:14:08;;;;;;;5.78;4.13;;;;;;;15.42;55.50;101490.16;6309396;22;20007;-83
2022/12/19 02:17:04;;;;;;;4.72;3.72;;;;;;;15.42;55.50;101491.03;6310396;22;20063;-83
2022/12/19 02:19:46;;;;;;;5.75;4.20;;;;;;;15.40;55.47;101481.50;6308796;22;20067;-77
2022/12/19 02:22:27;;;;;;;4.63;3.60;;;;;;;15.42;55.53;101474.59;6282070;22;20085;-78
2022/12/19 02:25:28;;;;;;;4.30;3.80;;;;;;;15.39;55.54;101462.44;6309425;22;20420;-78
2022/12/19 02:28:26;;;;;;;4.38;3.75;;;;;;;15.40;55.50;101464.22;6288562;22;20011;-79
2022/12/19 02:31:17;;;;;;;4.47;3.47;;;;;;;15.40;55.19;101460.75;6281866;22;20011;-78
2022/12/19 02:33:54;;;;;;;4.60;3.78;;;;;;;15.41;55.43;101457.28;6281826;22;20008;-78
2022/12/19 02:36:35;;;;;;;4.60;3.60;;;;;;;15.40;55.37;101448.66;6281924;22;20007;-78
2022/12/19 02:39:14;;;;;;;4.68;4.00;;;;;;;15.40;55.35;101453.84;6282445;22;20007;-78
2022/12/19 02:41:55;;;;;;;4.78;3.60;;;;;;;15.40;55.46;101456.44;6309400;22;20003;-78
2022/12/19 02:44:27;;;;;;;4.55;3.70;;;;;;;15.41;55.48;101455.56;6285500;22;20060;-78
2022/12/19 02:46:54;;;;;;;4.90;3.55;;;;;;;15.40;55.33;101440.88;6287964;22;20078;-78
2022/12/19 02:49:19;;;;;;;5.20;3.67;;;;;;;15.41;55.31;101444.31;6313026;22;20022;-78
2022/12/19 02:51:45;;;;;;;4.65;3.78;;;;;;;15.39;55.42;101428.75;6259524;22;20415;-79
2022/12/19 02:54:11;;;;;;;4.50;3.65;;;;;;;15.39;55.48;101439.09;6258963;22;20006;-78
2022/12/19 02:56:39;;;;;;;4.32;3.30;;;;;;;15.39;55.24;101436.53;6233237;22;20007;-79
2022/12/19 02:59:13;;;;;;;4.00;3.55;;;;;;;15.40;55.44;101429.63;6282209;22;20006;-79
2022/12/19 03:01:48;;;;;;;4.35;3.33;;;;;;;15.40;55.13;101422.72;6309513;22;20003;-79
2022/12/19 03:04:32;;;;;;;3.45;3.15;;;;;;;15.41;55.53;101428.75;6281691;22;20006;-78
2022/12/19 03:07:20;;;;;;;;;;;;;;;15.41;55.67;101432.22;6281451;22;20065;-78
2022/12/19 03:10:02;;;;;;;4.63;3.45;;;;;;;15.42;55.63;101431.38;6308366;22;20315;-78
2022/12/19 03:12:41;;;;;;;5.13;3.63;;;;;;;15.42;55.24;101427.91;6281478;22;20454;-78
2022/12/19 03:15:07;;;;;;;4.30;3.00;;;;;;;15.41;55.57;101423.56;6281629;22;20010;-78
2022/12/19 03:17:37;;;;;;;3.40;2.97;;;;;;;15.41;55.37;101427.03;6256088;22;20015;-78
2022/12/19 03:20:49;;;;;;;3.60;3.10;;;;;;;15.42;55.70;101415.81;6281272;22;20076;-78
2022/12/19 03:23:15;;;;;;;4.57;3.00;;;;;;;15.42;55.38;101415.81;6280920;22;20007;-78
2022/12/19 03:25:46;;;;;;;3.88;3.05;;;;;;;15.43;55.51;101412.34;6256122;22;20006;-78
2022/12/19 03:28:19;;;;;;;3.05;2.75;;;;;;;15.42;55.45;101409.78;6284882;22;20027;-79
2022/12/19 03:30:45;;;;;;;3.63;2.95;;;;;;;15.43;55.53;101403.72;6281413;22;19999;-78
2022/12/19 03:33:12;;;;;;;3.92;3.08;;;;;;;15.42;55.57;101402.00;6255806;22;20011;-79
2022/12/19 03:35:40;;;;;;;3.65;3.22;;;;;;;15.43;55.38;101407.16;6255730;22;20010;-79
2022/12/19 03:38:06;;;;;;;3.20;2.90;;;;;;;15.43;55.48;101401.13;6281085;22;20018;-79
2022/12/19 03:40:34;;;;;;;3.53;2.80;;;;;;;15.42;55.38;101387.28;6255677;22;20022;-78
2022/12/19 03:43:08;;;;;;;4.15;3.22;;;;;;;15.44;55.64;101392.50;6255663;22;20011;-78
2022/12/19 03:45:53;;;;;;;3.38;2.83;;;;;;;15.43;55.52;101394.19;6280956;22;20025;-78
2022/12/19 03:48:49;;;;;;;3.75;2.63;;;;;;;15.43;55.46;101388.16;6308278;22;20090;-78
2022/12/19 03:51:37;;;;;;;3.92;2.60;;;;;;;15.43;55.30;101385.56;6281049;22;19996;-78
2022/12/19 03:54:10;;;;;;;3.17;2.60;;;;;;;15.42;55.47;101384.69;6280696;22;20003;-78
2022/12/19 03:56:41;;;;;;;;;;;;;;;15.43;55.55;101385.56;6281797;22;20025;-78
2022/12/19 03:59:32;;;;;;;3.13;2.58;;;;;;;15.42;55.53;101378.66;6280839;22;19913;-78
2022/12/19 04:01:59;;;;;;;3.72;2.58;;;;;;;15.42;55.34;101383.84;6290825;22;20011;-78
2022/12/19 04:04:25;;;;;;;2.83;2.53;;;;;;;15.42;55.41;101383.84;6255698;22;20014;-79
2022/12/19 04:06:52;;;;;;;3.17;2.88;;;;;;;15.41;55.43;101379.47;6281465;22;20499;-79
2022/12/19 04:09:21;;;;;;;3.53;2.45;;;;;;;15.40;55.47;101383.81;6263216;22;20090;-78
2022/12/19 04:11:51;;;;;;;2.83;2.50;;;;;;;15.41;55.33;101379.47;6290811;22;20426;-80
2022/12/19 04:14:35;;;;;;;2.92;2.63;;;;;;;15.41;55.31;101377.75;6286591;22;20003;-79
2022/12/19 04:17:22;;;;;;;2.80;2.38;;;;;;;15.42;55.42;101376.06;6284912;22;20007;-79
2022/12/19 04:20:06;;;;;;;2.90;2.47;;;;;;;15.42;55.34;101370.88;6283667;22;20003;-79
2022/12/19 04:22:37;;;;;;;2.80;2.40;;;;;;;15.41;55.31;101375.16;6285422;22;20064;-79
2022/12/19 04:25:06;;;;;;;3.30;2.63;;;;;;;15.43;55.35;101372.59;6284540;22;20038;-79
2022/12/19 04:27:35;;;;;;;3.08;2.55;;;;;;;15.43;55.32;101370.00;6284787;22;20007;-79
2022/12/19 04:30:02;;;;;;;3.15;2.30;;;;;;;15.43;55.41;101359.63;6287421;22;20042;-79
2022/12/19 04:32:31;;;;;;;2.53;2.13;;;;;;;15.43;55.24;101367.41;6262277;22;20010;-79
2022/12/19 04:34:57;;;;;;;2.70;2.20;;;;;;;15.44;55.56;101363.97;6288732;22;20090;-79
2022/12/19 04:37:23;;;;;;;2.40;2.10;;;;;;;15.43;55.31;101364.81;6286764;22;20011;-79
2022/12/19 04:39:48;;;;;;;2.17;1.70;;;;;;;15.43;55.30;101363.06;6260385;22;20006;-78
2022/12/19 04:42:14;;;;;;;2.80;2.30;;;;;;;15.43;55.38;101363.06;6260022;22;20004;-79
2022/12/19 04:44:39;;;;;;;2.47;2.10;;;;;;;15.44;55.42;101356.19;6260427;22;20003;-79
2022/12/19 04:49:39;;;;;;;2.67;1.88;;;;;;;15.45;55.45;101359.63;6298951;22;20023;-78
2022/12/19 04:52:05;;;;;;;2.25;1.98;;;;;;;15.43;55.52;101351.84;6233645;22;20094;-78
2022/12/19 04:54:31;;;;;;;2.15;1.85;;;;;;;15.45;55.13;101349.25;6281604;22;20049;-78
2022/12/19 04:56:57;;;;;;;2.83;2.10;;;;;;;15.44;55.47;101348.41;6281080;22;20078;-78
2022/12/19 04:59:22;;;;;;;2.63;2.00;;;;;;;15.43;55.38;101347.50;6256023;22;20031;-78
2022/12/19 05:01:48;;;;;;;2.63;2.10;;;;;;;15.43;55.39;101342.31;6255305;22;20428;-79
2022/12/19 05:04:13;;;;;;;2.72;2.15;;;;;;;15.42;55.48;101343.19;6281574;22;20128;-79
2022/12/19 05:06:39;;;;;;;2.38;1.92;;;;;;;15.44;55.30;101348.41;6257621;22;20018;-79
2022/12/19 05:09:04;;;;;;;3.08;2.00;;;;;;;15.44;55.47;101340.63;6231962;22;20442;-79
2022/12/19 05:11:29;;;;;;;2.10;1.73;;;;;;;15.45;55.50;101338.88;6257426;22;20061;-79
2022/12/19 05:13:56;;;;;;;2.28;2.00;;;;;;;15.45;55.43;101331.09;6257650;22;20398;-79
2022/12/19 05:16:22;;;;;;;2.30;1.88;;;;;;;15.44;55.45;101335.44;6257868;22;20013;-78
2022/12/19 05:18:47;;;;;;;2.78;1.95;;;;;;;15.45;55.44;101329.38;6231558;22;20078;-79
2022/12/19 05:21:13;;;;;;;2.20;1.80;;;;;;;15.46;55.50;101333.72;6231924;22;20003;-79
2022/12/19 05:23:38;;;;;;;2.10;1.75;;;;;;;15.46;55.52;101336.31;6231770;22;20133;-79
2022/12/19 05:26:05;;;;;;;3.05;2.10;;;;;;;15.46;55.81;101333.72;6257023;22;20013;-79
2022/12/19 05:28:31;;;;;;;2.17;1.70;;;;;;;15.48;55.54;101337.16;6282486;22;20000;-79
2022/12/19 05:31:12;;;;;;;2.17;1.80;;;;;;;15.46;55.40;101336.31;6282522;22;20416;-78
2022/12/19 05:33:39;;;;;;;2.13;1.80;;;;;;;15.47;55.53;101334.59;6310037;22;20078;-78
2022/12/19 05:36:05;;;;;;;2.22;1.60;;;;;;;15.48;55.44;101331.13;6284526;22;20003;-79
2022/12/19 05:38:31;;;;;;;1.83;1.58;;;;;;;15.47;55.43;101330.25;6257263;22;20018;-79
2022/12/19 05:40:56;;;;;;;2.17;1.70;;;;;;;15.47;55.46;101334.59;6282748;22;20447;-78
2022/12/19 05:43:22;;;;;;;1.98;1.63;;;;;;;15.48;55.48;101337.16;6282757;22;20003;-79
2022/12/19 05:45:48;;;;;;;1.55;1.40;;;;;;;15.48;55.24;101334.56;6257111;22;20003;-79
2022/12/19 05:48:13;;;;;;;2.00;1.50;;;;;;;15.49;55.39;101335.47;6277087;22;20058;-79
2022/12/19 05:50:38;;;;;;;2.50;1.80;;;;;;;15.49;55.58;101335.47;6226396;22;20004;-79
2022/12/19 05:53:04;;;;;;;1.67;1.48;;;;;;;15.49;55.48;101330.28;6226370;22;20321;-79
2022/12/19 05:55:29;;;;;;;1.45;1.33;;;;;;;15.50;55.38;101326.81;6226708;22;20416;-79
2022/12/19 05:57:55;;;;;;;1.70;1.45;;;;;;;15.49;55.64;101323.34;6226742;22;20325;-77
2022/12/19 06:00:20;;;;;;;1.83;1.45;;;;;;;15.50;55.75;101324.22;6226040;22;20014;-78
2022/12/19 06:02:46;;;;;;;2.10;1.40;;;;;;;15.51;55.65;101325.97;6251330;22;20053;-77
2022/12/19 06:05:12;;;;;;;2.00;1.50;;;;;;;15.51;55.74;101319.06;6251532;22;20031;-77
2022/12/19 06:07:40;;;;;;;3.20;1.30;;;;;;;15.51;55.86;101324.25;6226369;22;20086;-77
2022/12/19 06:10:06;;;;;;;2.35;1.52;;;;;;;15.53;55.85;101324.25;6227228;22;20431;-76
2022/12/19 06:12:31;;;;;;;1.65;1.30;;;;;;;15.52;55.75;101313.00;6231198;22;20004;-77
2022/12/19 06:14:57;;;;;;;1.70;1.30;;;;;;;15.54;55.68;101313.00;6230139;22;20011;-77
2022/12/19 06:17:22;;;;;;;3.05;1.50;;;;;;;15.54;55.63;101321.66;6227848;22;20010;-78
2022/12/19 06:19:48;;;;;;;3.85;1.27;;;;;;;15.55;55.78;101317.34;6253563;22;20014;-77
2022/12/19 06:22:13;;;;;;;2.13;1.30;;;;;;;15.55;55.83;101330.31;6227204;22;20057;-76
2022/12/19 06:24:38;;;;;;;1.90;1.30;;;;;;;15.55;55.69;101322.53;6254800;22;20000;-77
2022/12/19 06:27:04;;;;;;;2.60;1.23;;;;;;;15.56;55.86;101324.25;6229411;22;20004;-76
2022/12/19 06:29:29;;;;;;;6.43;1.60;;;;;;;15.57;55.80;101310.41;6229299;22;20055;-78
2022/12/19 06:31:55;;;;;;;1.80;1.45;;;;;;;15.56;55.87;101311.28;6229119;22;20061;-78
2022/12/19 06:34:21;;;;;;;4.30;1.50;;;;;;;15.55;55.76;101318.22;6258069;22;20011;-78
2022/12/19 06:36:46;;;;;;;1.83;1.40;;;;;;;15.56;55.81;101322.53;6257757;22;20055;-78
2022/12/19 06:39:14;;;;;;;2.05;1.45;;;;;;;15.58;55.72;101320.81;6258388;22;20000;-78
2022/12/19 06:45:02;;;;;;;3.35;1.40;;;;;;;15.60;55.72;101323.44;6291748;22;20065;-80
2022/12/19 06:47:28;;;;;;;2.17;1.45;;;;;;;15.60;55.79;101324.28;6258841;22;20004;-78
2022/12/19 06:49:53;;;;;;;1.92;1.33;;;;;;;15.60;55.94;101328.63;6259282;22;20197;-79
2022/12/19 06:52:19;;;;;;;2.05;1.30;;;;;;;15.60;55.83;101315.66;6235981;22;20014;-78
2022/12/19 06:54:44;;;;;;;2.95;1.27;;;;;;;15.60;55.82;101334.66;6232285;22;20078;-79
2022/12/19 06:57:10;;;;;;;1.55;1.20;;;;;;;15.60;55.94;101324.28;6255977;22;20063;-78
2022/12/19 06:59:35;;;;;;;3.15;1.67;;;;;;;15.61;56.09;101330.34;6255879;22;20014;-78
2022/12/19 07:02:11;;;;;;;2.72;1.35;;;;;;;15.61;55.95;101325.16;6227689;22;20451;-78
2022/12/19 07:04:43;;;;;;;3.33;1.35;;;;;;;15.62;56.09;101335.56;6253222;22;20022;-78
2022/12/19 07:07:09;;;;;;;2.25;1.38;;;;;;;15.61;55.98;101328.63;6254096;22;20336;-78
2022/12/19 07:09:34;;;;;;;1.60;1.20;;;;;;;15.63;56.00;101334.72;6228851;22;20000;-78
2022/12/19 07:12:00;;;;;;;2.47;1.38;;;;;;;15.63;56.04;101339.91;6228361;22;20015;-78
2022/12/19 07:14:26;;;;;;;1.92;1.10;;;;;;;15.63;56.31;101333.81;6252689;22;20440;-76
2022/12/19 07:16:53;;;;;;;3.00;1.30;;;;;;;15.64;56.46;101339.03;6227048;22;20011;-78
2022/12/19 07:19:20;;;;;;;4.07;1.30;;;;;;;15.64;56.24;101338.16;6252128;22;20023;-77
2022/12/19 07:21:45;;;;;;;5.13;1.40;;;;;;;15.64;56.13;101339.03;6252656;22;20495;-77
2022/12/19 07:24:30;;;;;;;2.67;1.52;;;;;;;15.63;56.04;101337.31;6254846;22;20011;-77
2022/12/19 07:26:56;;;;;;;2.63;1.30;;;;;;;15.66;56.20;101344.22;6255513;22;20007;-77
2022/12/19 07:29:25;;;;;;;1.70;1.17;;;;;;;15.66;56.07;101346.81;6262243;22;20076;-78
2022/12/19 07:31:50;;;;;;;2.35;1.25;;;;;;;15.66;56.38;101343.34;6259819;22;20134;-78
2022/12/19 07:34:16;;;;;;;3.08;1.35;;;;;;;15.66;56.26;101353.72;6227558;22;20008;-77
2022/12/19 07:36:41;;;;;;;1.95;1.20;;;;;;;15.67;56.34;101351.16;6227867;22;20420;-77
2022/12/19 07:39:07;;;;;;;1.50;1.10;;;;;;;15.67;56.47;101338.16;6253970;22;20031;-77
2022/12/19 07:41:36;;;;;;;1.73;1.23;;;;;;;15.67;56.28;101338.16;6252124;22;20004;-78
2022/12/19 07:44:01;;;;;;;1.42;1.23;;;;;;;15.67;56.39;101343.34;6230026;22;20039;-77
2022/12/19 07:46:29;;;;;;;1.90;1.13;;;;;;;15.68;56.27;101345.13;6225030;22;20027;-77
2022/12/19 07:48:54;;;;;;;1.55;1.20;;;;;;;15.69;56.38;101348.56;6275756;22;20011;-77
2022/12/19 07:51:19;;;;;;;4.00;1.30;;;;;;;15.69;56.36;101352.03;6225204;22;20058;-77
2022/12/19 07:53:45;;;;;;;2.47;1.10;;;;;;;15.69;56.35;101346.84;6225070;22;20374;-77
2022/12/19 07:56:10;;;;;;;1.50;1.10;;;;;;;15.70;56.46;101347.69;6226924;22;20067;-78
2022/12/19 07:58:35;;;;;;;1.73;1.23;;;;;;;15.70;56.28;101347.69;6253499;22;20007;-77
2022/12/19 08:01:01;;;;;;;1.90;1.27;;;;;;;15.71;56.41;101349.44;6228695;22;20004;-77
2022/12/19 08:03:27;;;;;;;1.50;1.10;;;;;;;15.70;56.21;101358.97;6253127;22;20064;-77
2022/12/19 08:05:58;;;;;;;2.13;1.30;;;;;;;15.71;56.30;101357.22;6227268;22;20012;-77
2022/12/19 08:08:24;;;;;;;2.10;1.20;;;;;;;15.71;56.25;101355.53;6252102;22;20377;-77
2022/12/19 08:10:49;;;;;;;1.58;1.00;;;;;;;15.72;56.34;101354.69;6251391;22;20007;-78
2022/12/19 08:13:15;;;;;;;1.40;1.10;;;;;;;15.72;56.28;101362.47;6250407;22;20014;-77
2022/12/19 08:15:40;;;;;;;1.13;1.00;;;;;;;15.73;56.25;101373.72;6226107;22;20008;-77
2022/12/19 08:18:05;;;;;;;1.50;1.10;;;;;;;15.73;56.39;101366.78;6224984;22;20014;-77
2022/12/19 08:20:31;;;;;;;1.40;1.10;;;;;;;15.73;56.33;101379.75;6225895;22;20012;-78
2022/12/19 08:22:56;;;;;;;3.05;1.38;;;;;;;15.73;56.42;101377.16;6226321;22;20003;-78
2022/12/19 08:25:21;;;;;;;1.52;1.10;;;;;;;15.73;56.63;101371.97;6226955;22;20023;-77
2022/12/19 08:27:47;;;;;;;2.00;1.20;;;;;;;15.74;56.34;101371.13;6225746;22;20056;-77
2022/12/19 08:30:12;;;;;;;1.70;1.05;;;;;;;15.74;56.50;101373.72;6224121;22;20000;-77
2022/12/19 08:32:39;;;;;;;1.73;1.10;;;;;;;15.75;56.59;101377.19;6224840;22;20091;-77
2022/12/19 08:35:06;;;;;;;1.85;1.25;;;;;;;15.74;56.35;101372.84;6224812;22;20004;-77
2022/12/19 08:37:31;;;;;;;1.45;1.02;;;;;;;15.76;56.31;101371.97;6249735;22;19996;-77
2022/12/19 08:39:56;;;;;;;1.80;1.20;;;;;;;15.75;56.34;101372.84;6226150;22;20011;-78
2022/12/19 08:42:22;;;;;;;1.30;1.10;;;;;;;15.76;56.03;101374.59;6227436;22;20007;-77
2022/12/19 08:44:47;;;;;;;1.40;0.90;;;;;;;15.76;56.46;101379.78;6227599;22;20390;-77
2022/12/19 08:47:12;;;;;;;2.22;1.50;;;;;;;15.77;56.48;101376.34;6227264;22;20012;-78
2022/12/19 08:49:38;;;;;;;1.60;1.20;;;;;;;15.77;56.31;101371.16;6227634;22;20026;-77
2022/12/19 08:52:03;;;;;;;1.00;0.90;;;;;;;15.79;56.42;101373.75;6227722;22;20065;-77
2022/12/19 08:54:29;;;;;;;1.13;0.93;;;;;;;15.79;56.42;101373.75;6228311;22;20034;-77
2022/12/19 08:56:54;;;;;;;3.85;1.15;;;;;;;15.79;56.47;101379.81;6227694;22;20003;-77
2022/12/19 08:59:19;;;;;;;1.40;0.90;;;;;;;15.79;56.38;101376.34;6227799;22;20035;-77
2022/12/19 09:01:45;;;;;;;1.30;1.10;;;;;;;15.80;56.54;101375.47;6227806;22;20018;-77
2022/12/19 09:04:10;;;;;;;1.52;1.00;;;;;;;15.80;56.53;101386.72;6228038;22;20007;-77
2022/12/19 09:06:35;;;;;;;1.33;1.00;;;;;;;15.79;56.54;101384.13;6202808;22;20420;-78
2022/12/19 09:09:03;;;;;;;2.42;1.00;;;;;;;15.81;56.28;101385.03;6228321;22;20007;-77
2022/12/19 09:11:29;;;;;;;1.33;1.10;;;;;;;15.80;56.41;101381.53;6254724;22;20106;-77
2022/12/19 09:21:41;;;;;;;2.92;1.10;;;;;;;15.82;56.39;101363.38;6278455;22;20015;-80
2022/12/19 09:24:07;;;;;;;1.65;1.10;;;;;;;15.82;56.59;101373.75;6307378;22;19999;-84
2022/12/19 09:26:38;;;;;;;1.20;1.00;;;;;;;15.84;56.46;101377.25;6248875;22;20076;-85
2022/12/19 09:29:04;;;;;;;1.35;1.00;;;;;;;15.83;56.41;101383.31;6253251;22;20019;-83
2022/12/19 09:31:30;;;;;;;1.45;1.15;;;;;;;15.83;56.44;101384.16;6280410;22;19991;-85
2022/12/19 09:52:29;;;;;;;1.35;0.90;;;;;;;15.88;56.47;101398.91;6270225;22;20034;-82
2022/12/19 09:55:05;;;;;;;1.83;1.00;;;;;;;15.87;56.45;101405.78;6252756;22;20008;-86
2022/12/19 09:57:49;;;;;;;2.03;0.98;;;;;;;15.87;56.32;101400.59;6280825;22;19988;-86
2022/12/19 10:03:04;;;;;;;1.42;1.10;;;;;;;15.88;56.70;101396.31;6260451;22;20016;-85
2022/12/19 10:05:43;;;;;;;1.40;1.05;;;;;;;15.88;56.37;101399.75;6306287;22;20014;-86
2022/12/19 10:08:24;;;;;;;1.30;0.90;;;;;;;15.90;56.45;101394.59;6305953;22;20059;-85
2022/12/19 10:11:05;;;;;;;1.67;1.00;;;;;;;15.91;56.63;101397.19;6271797;22;20007;-85
2022/12/19 10:13:39;;;;;;;1.80;0.95;;;;;;;15.93;56.34;101402.38;6305546;22;19999;-84
2022/12/19 10:18:55;;;;;;;1.25;0.98;;;;;;;15.91;56.34;101396.31;6248857;22;20522;-86
2022/12/19 10:24:01;;;;;;;1.52;1.10;;;;;;;15.95;56.25;101408.47;6214953;23;20001;-85
2022/12/19 10:26:43;;;;;;;1.15;0.80;;;;;;;15.94;56.41;101401.50;6187953;23;20009;-84
2022/12/19 10:29:34;;;;;;;1.00;0.80;;;;;;;15.95;56.31;101401.53;6210084;22;20035;-81
2022/12/19 10:32:16;;;;;;;1.83;1.00;;;;;;;15.96;56.38;101405.00;6239963;23;20039;-85
2022/12/19 10:34:52;;;;;;;2.17;1.00;;;;;;;15.97;56.45;101401.56;6249245;22;19984;-82
2022/12/19 10:45:56;;;;;;;1.30;0.90;;;;;;;15.97;56.43;101401.56;6277733;22;20011;-85
2022/12/19 10:50:57;;;;;;;1.77;1.00;;;;;;;15.98;56.33;101386.00;6258300;22;20003;-84
2022/12/19 10:53:28;;;;;;;1.35;1.02;;;;;;;15.98;56.50;101393.78;6277820;22;20023;-85
2022/12/19 11:11:33;;;;;;;1.50;1.08;;;;;;;16.01;56.69;101398.13;6322266;22;20019;-85
2022/12/19 11:14:17;;;;;;;1.23;0.80;;;;;;;15.98;56.63;101392.88;6309654;22;20073;-85
2022/12/19 11:16:48;;;;;;;1.55;0.90;;;;;;;15.99;56.59;101392.91;6311059;22;19998;-85
2022/12/19 11:19:29;;;;;;;1.65;0.98;;;;;;;15.99;56.79;101387.72;6335306;22;20013;-84
2022/12/19 11:32:34;;;;;;;1.35;0.95;;;;;;;16.04;56.69;101369.56;6322870;22;20003;-85
2022/12/19 11:42:56;;;;;;;1.23;0.80;;;;;;;16.07;56.42;101366.13;6274614;22;20019;-84
2022/12/19 11:45:44;;;;;;;2.22;0.90;;;;;;;16.06;56.61;101357.47;6335132;22;20019;-85
2022/12/19 11:48:19;;;;;;;1.92;1.10;;;;;;;16.07;56.56;101367.00;6307768;22;20009;-84
2022/12/19 11:51:12;;;;;;;1.33;0.90;;;;;;;16.07;57.07;101356.63;6308637;22;19992;-85
2022/12/19 11:54:00;;;;;;;1.05;0.77;;;;;;;16.07;56.84;101351.44;6307930;22;20003;-85
2022/12/19 11:56:30;;;;;;;2.13;1.00;;;;;;;16.07;56.71;101345.34;6299505;22;20012;-84
2022/12/19 12:03:22;;;;;;;1.20;0.80;;;;;;;16.09;56.82;101341.03;6270204;23;20054;-85
2022/12/19 12:13:11;;;;;;;1.15;0.82;;;;;;;16.09;56.73;101331.53;6272027;23;20015;-84
2022/12/19 12:22:57;;;;;;;1.10;0.82;;;;;;;16.10;56.62;101312.47;6271936;23;20076;-85
2022/12/19 12:29:34;;;;;;;1.50;1.05;;;;;;;16.11;56.83;101309.00;6271724;22;20630;-85
2022/12/19 12:36:13;;;;;;;1.30;0.75;;;;;;;16.13;56.85;101315.09;6271897;23;20023;-85
2022/12/19 12:49:27;;;;;;;0.88;0.70;;;;;;;16.15;56.88;101310.75;6224703;23;20008;-85
2022/12/19 12:55:48;;;;;;;1.00;0.77;;;;;;;16.18;56.82;101312.53;6270190;22;20066;-83
2022/12/19 13:05:18;;;;;;;1.10;0.80;;;;;;;16.17;57.11;101301.25;6208176;23;20007;-85
2022/12/19 13:08:24;;;;;;;1.55;0.60;;;;;;;16.17;56.66;101296.06;6210011;23;20013;-84
2022/12/19 13:14:24;;;;;;;1.23;0.82;;;;;;;16.18;57.09;101283.97;6211142;23;20246;-84
2022/12/19 13:31:19;;;;;;;2.20;0.90;;;;;;;16.24;56.99;101256.28;6212042;23;20020;-84
2022/12/19 13:34:12;;;;;;;;;;;;;;;16.25;56.86;101260.59;6206237;23;19989;-84
2022/12/19 13:40:33;;;;;;;4.28;0.90;;;;;;;16.25;57.09;101244.16;6212017;23;20024;-85
2022/12/19 13:46:41;;;;;;;2.22;0.70;;;;;;;16.24;57.22;101256.28;6212635;23;20062;-85
2022/12/19 13:52:54;;;;;;;1.02;0.80;;;;;;;16.27;57.05;101232.06;6212459;23;20100;-84
2022/12/19 13:55:59;;;;;;;2.45;0.90;;;;;;;16.29;57.06;101237.22;6195099;23;20009;-85
2022/12/19 13:59:11;;;;;;;1.35;0.80;;;;;;;16.29;56.99;101237.22;6172951;23;20009;-84
2022/12/19 14:16:06;;;;;;;1.58;0.70;;;;;;;16.29;57.23;101242.41;6065824;23;20045;-85
2022/12/19 14:21:29;;;;;;;0.95;0.73;;;;;;;16.30;57.20;101255.41;6311209;22;20027;-84
2022/12/19 14:24:13;;;;;;;0.85;0.70;;;;;;;16.30;57.11;101246.75;6311260;22;20005;-85
2022/12/19 14:29:21;;;;;;;0.98;0.68;;;;;;;16.31;57.27;101238.09;6219557;23;20017;-78
2022/12/19 14:31:46;;;;;;;2.25;0.57;;;;;;;16.33;57.13;101238.97;6217891;23;20005;-78
2022/12/19 14:34:19;;;;;;;1.25;0.80;;;;;;;16.32;57.31;101248.50;6219157;23;20009;-78
2022/12/19 14:36:54;;;;;;;2.63;0.87;;;;;;;16.32;57.17;101261.47;6242281;23;20031;-78
2022/12/19 14:39:23;;;;;;;1.25;0.80;;;;;;;16.31;57.35;101266.66;6218309;23;20075;-79
2022/12/19 14:44:50;;;;;;;1.45;0.90;;;;;;;16.32;57.23;101271.00;6226303;23;20043;-79
2022/12/19 14:47:37;;;;;;;1.30;0.85;;;;;;;16.32;56.93;101273.59;6223406;23;20009;-78
2022/12/19 14:50:25;;;;;;;1.08;0.70;;;;;;;16.30;57.38;101265.81;6221510;23;20084;-79
2022/12/19 14:53:05;;;;;;;1.33;0.90;;;;;;;16.31;57.27;101262.38;6222048;23;20012;-78
2022/12/19 14:55:33;;;;;;;0.85;0.63;;;;;;;16.32;57.27;101258.03;6219324;23;20008;-78
2022/12/19 14:58:10;;;;;;;0.85;0.70;;;;;;;16.32;57.49;101265.81;6244497;23;20021;-78
2022/12/19 15:00:50;;;;;;;1.63;0.90;;;;;;;16.31;57.18;101254.56;6219236;23;20078;-79
2022/12/19 15:03:29;;;;;;;0.77;0.60;;;;;;;16.30;57.18;101247.63;6220685;23;20004;-78
2022/12/19 15:06:14;;;;;;;1.00;0.80;;;;;;;16.32;57.30;101256.28;6219490;23;20074;-78
2022/12/19 15:08:41;;;;;;;1.08;0.80;;;;;;;16.32;57.41;101245.91;6218053;23;20028;-78
2022/12/19 15:13:55;;;;;;;1.85;1.05;;;;;;;16.33;57.21;101238.97;6217583;23;20344;-78